Meteorología y climatología de Navarra
Datos de la estación - Meteo Navarra

Estación de Gorramendi GN

Altitud 1071 m.


Datos desde el 15/01/2020 hasta el 16/01/2020 en horario solar
Los datos son PROVISIONALES

Anterior Página 1 de 1 Siguiente Descargar: Formato para Excel 2000 o superior   Formato csv   Formato para OpenOffice Calc
Fecha Temperatura Humedad relativa Radiación global Insolación Precipitación Vel. viento 10 m Vel. viento 10 m Dir. viento 10 m
ºC % W/m² s l/m² m/s km/h º
15/01/2020 0:00 4.7 61 0.0 0 0.0 18.3 65.7 207
15/01/2020 0:10 4.5 62 0.0 0 0.0 19.1 68.8 207
15/01/2020 0:20 4.4 62 0.0 0 0.0 18.9 67.9 209
15/01/2020 0:30 4.3 64 0.0 0 0.0 18.2 65.6 206
15/01/2020 0:40 4.2 64 0.0 0 0.0 16.1 58.0 210
15/01/2020 0:50 4.0 65 0.0 0 0.0 14.9 53.6 213
15/01/2020 1:00 4.1 65 0.0 0 0.0 15.1 54.2 215
15/01/2020 1:10 4.0 65 0.0 0 0.0 15.3 55.0 213
15/01/2020 1:20 4.1 65 0.0 0 0.0 15.2 54.7 212
15/01/2020 1:30 4.1 65 0.0 0 0.0 16.3 58.6 208
15/01/2020 1:40 4.1 64 0.0 0 0.0 16.0 57.5 208
15/01/2020 1:50 4.1 64 0.0 0 0.0 16.9 60.7 207
15/01/2020 2:00 4.2 64 0.0 0 0.0 17.9 64.5 209
15/01/2020 2:10 4.2 65 0.0 0 0.0 18.4 66.1 211
15/01/2020 2:20 4.3 65 0.0 0 0.0 16.8 60.3 212
15/01/2020 2:30 4.3 66 0.0 0 0.0 16.7 60.2 214
15/01/2020 2:40 4.4 66 0.0 0 0.0 17.3 62.4 215
15/01/2020 2:50 3.8 68 0.0 0 0.0 17.7 63.8 218
15/01/2020 3:00 4.0 68 0.0 0 0.0 19.7 70.8 214
15/01/2020 3:10 4.0 68 0.0 0 0.0 16.6 59.7 222
15/01/2020 3:20 3.7 70 0.0 0 0.0 16.0 57.7 224
15/01/2020 3:30 3.6 70 0.0 0 0.0 20.9 75.1 210
15/01/2020 3:40 4.2 68 0.0 0 0.0 24.4 88.0 204
15/01/2020 3:50 4.9 66 0.0 0 0.0 23.9 86.0 205
15/01/2020 4:00 5.2 65 0.0 0 0.0 21.4 77.0 205
15/01/2020 4:10 4.8 66 0.0 0 0.0 16.5 59.5 209
15/01/2020 4:20 4.2 68 0.0 0 0.0 16.9 60.9 206
15/01/2020 4:30 4.0 69 0.0 0 0.0 18.4 66.1 199
15/01/2020 4:40 4.5 68 0.0 0 0.0 17.7 63.8 198
15/01/2020 4:50 4.4 69 0.0 0 0.0 17.3 62.4 197
15/01/2020 5:00 4.7 68 0.0 0 0.0 16.0 57.5 198
15/01/2020 5:10 4.5 69 0.0 0 0.0 17.0 61.3 198
15/01/2020 5:20 4.1 70 0.0 0 0.0 17.2 61.9 196
15/01/2020 5:30 4.1 70 0.0 0 0.0 18.2 65.4 194
15/01/2020 5:40 4.4 68 0.0 0 0.0 18.6 66.9 201
15/01/2020 5:50 4.9 67 0.0 0 0.0 17.8 64.2 203
15/01/2020 6:00 4.8 67 0.0 0 0.0 16.2 58.4 209
15/01/2020 6:10 4.7 67 0.0 0 0.0 17.4 62.6 205
15/01/2020 6:20 5.0 67 0.0 0 0.0 17.8 64.1 206
15/01/2020 6:30 4.6 68 0.0 0 0.0 18.5 66.6 205
15/01/2020 6:40 4.9 67 0.0 0 0.0 17.9 64.3 208
15/01/2020 6:50 4.6 68 0.0 0 0.0 16.4 59.0 207
15/01/2020 7:00 4.5 69 0.0 0 0.0 15.8 57.0 206
15/01/2020 7:10 4.5 69 0.0 0 0.0 15.1 54.2 205
15/01/2020 7:20 4.6 68 0.0 0 0.0 16.4 58.9 202
15/01/2020 7:30 5.0 67 0.0 0 0.0 16.9 60.7 206
15/01/2020 7:40 4.9 67 0.0 0 0.0 16.3 58.5 209
15/01/2020 7:50 4.9 67 19.7 0 0.0 16.6 59.7 207
15/01/2020 8:00 5.2 66 47.9 548 0.0 18.4 66.1 210
15/01/2020 8:10 5.4 66 74.2 600 0.0 18.0 64.7 208
15/01/2020 8:20 5.6 64 60.8 600 0.0 18.6 67.1 208
15/01/2020 8:30 5.3 65 46.7 80 0.0 18.4 66.3 206
15/01/2020 8:40 5.1 66 41.8 0 0.0 17.5 62.9 208
15/01/2020 8:50 5.1 66 54.1 0 0.0 17.6 63.3 206
15/01/2020 9:00 5.2 66 62.0 0 0.0 18.6 67.0 206
15/01/2020 9:10 5.2 66 74.6 0 0.0 17.5 63.1 206
15/01/2020 9:20 5.7 65 81.5 0 0.0 18.7 67.4 208
15/01/2020 9:30 5.8 64 86.1 0 0.0 18.3 65.9 209
15/01/2020 9:40 5.6 66 94.6 0 0.0 17.2 61.7 205
15/01/2020 9:50 5.5 67 105.7 0 0.0 17.0 61.2 202
15/01/2020 10:00 5.6 67 122.8 0 0.0 16.7 60.3 204
15/01/2020 10:10 5.7 66 129.5 0 0.0 17.6 63.2 205
15/01/2020 10:20 5.7 66 124.0 0 0.0 17.1 61.6 214
15/01/2020 10:30 5.8 66 139.0 0 0.0 16.8 60.6 223
15/01/2020 10:40 5.8 66 177.2 0 0.0 17.6 63.3 223
15/01/2020 10:50 5.9 66 161.1 0 0.0 16.5 59.4 221
15/01/2020 11:00 5.9 67 152.4 0 0.0 17.0 61.1 211
15/01/2020 11:10 5.9 66 167.7 0 0.0 16.9 60.9 209
15/01/2020 11:20 5.9 66 171.9 0 0.0 16.0 57.6 215
15/01/2020 11:30 5.9 67 173.9 60 0.0 15.7 56.5 210
15/01/2020 11:40 6.2 66 334.8 600 0.0 17.3 62.3 211
15/01/2020 11:50 6.5 65 325.1 600 0.0 17.1 61.5 216
15/01/2020 12:00 6.4 66 279.1 600 0.0 15.1 54.5 210
15/01/2020 12:10 6.4 66 258.0 600 0.0 14.2 50.9 206
15/01/2020 12:20 6.6 65 245.3 526 0.0 15.4 55.6 211
15/01/2020 12:30 6.7 65 230.8 210 0.0 15.4 55.3 215
15/01/2020 12:40 6.6 65 203.8 0 0.0 14.4 51.7 204
15/01/2020 12:50 6.6 66 188.1 0 0.0 14.2 51.0 207
15/01/2020 13:00 6.7 65 156.3 0 0.0 13.6 49.0 213
15/01/2020 13:10 6.6 66 100.6 0 0.0 12.6 45.2 204
15/01/2020 13:20 6.5 66 66.9 0 0.0 12.5 44.8 202
15/01/2020 13:30 6.2 68 85.8 0 0.0 10.9 39.1 204
15/01/2020 13:40 5.9 69 93.0 0 0.0 9.7 35.1 212
15/01/2020 13:50 6.1 68 124.9 0 0.0 11.4 41.1 216
15/01/2020 14:00 6.4 67 175.8 0 0.0 11.8 42.4 215
15/01/2020 14:10 6.4 68 189.5 156 0.0 10.6 38.1 224
15/01/2020 14:20 6.1 70 157.5 0 0.0 9.9 35.5 234
15/01/2020 14:30 6.0 70 160.7 0 0.0 9.3 33.6 239
15/01/2020 14:40 5.8 72 151.3 0 0.0 10.0 36.0 234
15/01/2020 14:50 6.6 68 238.8 550 0.0 12.9 46.4 237
15/01/2020 15:00 6.8 67 175.3 304 0.0 11.0 39.6 242
15/01/2020 15:10 6.5 69 114.2 0 0.0 12.6 45.3 244
15/01/2020 15:20 6.4 70 86.7 0 0.0 11.3 40.7 242
15/01/2020 15:30 6.4 70 74.7 0 0.0 11.1 40.0 240
15/01/2020 15:40 6.2 71 64.1 0 0.0 10.2 36.5 239
15/01/2020 15:50 6.1 71 57.5 0 0.0 8.5 30.5 236
15/01/2020 16:00 5.8 73 58.3 0 0.0 7.4 26.7 228
15/01/2020 16:10 6.0 72 53.7 0 0.0 8.9 32.0 225
15/01/2020 16:20 5.8 73 61.6 542 0.0 7.6 27.2 221
15/01/2020 16:30 6.1 72 57.7 600 0.0 8.2 29.3 223
15/01/2020 16:40 5.9 73 40.9 550 0.0 8.6 31.0 228
15/01/2020 16:50 5.8 73 23.7 0 0.0 8.1 29.3 232
15/01/2020 17:00 5.6 73 6.5 0 0.0 9.0 32.4 224
15/01/2020 17:10 5.6 74 0.0 0 0.0 9.4 33.7 224
15/01/2020 17:20 5.3 75 0.0 0 0.0 8.0 28.6 220
15/01/2020 17:30 5.5 74 0.0 0 0.0 8.4 30.2 218
15/01/2020 17:40 5.4 75 0.0 0 0.0 8.4 30.1 215
15/01/2020 17:50 5.5 74 0.0 0 0.0 8.8 31.5 213
15/01/2020 18:00 5.7 73 0.0 0 0.0 9.2 33.1 220
15/01/2020 18:10 5.7 73 0.0 0 0.0 8.7 31.4 216
15/01/2020 18:20 5.5 74 0.0 0 0.0 8.7 31.2 213
15/01/2020 18:30 5.9 73 0.0 0 0.0 9.6 34.4 218
15/01/2020 18:40 5.9 73 0.0 0 0.0 9.2 33.0 215
15/01/2020 18:50 5.9 73 0.0 0 0.0 8.9 32.1 212
15/01/2020 19:00 5.9 73 0.0 0 0.0 9.0 32.5 216
15/01/2020 19:10 5.9 73 0.0 0 0.0 9.1 32.7 215
15/01/2020 19:20 5.9 73 0.0 0 0.0 9.3 33.6 214
15/01/2020 19:30 6.0 72 0.0 0 0.0 9.5 34.2 217
15/01/2020 19:40 6.0 72 0.0 0 0.0 9.4 33.8 213
15/01/2020 19:50 6.0 72 0.0 0 0.0 9.5 34.2 214
15/01/2020 20:00 6.1 72 0.0 0 0.0 9.9 35.5 217
15/01/2020 20:10 6.0 72 0.0 0 0.0 9.5 34.2 218
15/01/2020 20:20 5.9 73 0.0 0 0.0 9.5 34.0 214
15/01/2020 20:30 5.9 72 0.0 0 0.0 10.4 37.3 212
15/01/2020 20:40 6.0 72 0.0 0 0.0 10.9 39.2 210
15/01/2020 20:50 6.0 71 0.0 0 0.0 10.8 38.7 208
15/01/2020 21:00 6.0 70 0.0 0 0.0 10.8 38.7 206
15/01/2020 21:10 6.2 69 0.0 0 0.0 11.6 41.9 212
15/01/2020 21:20 6.2 69 0.0 0 0.0 11.8 42.3 211
15/01/2020 21:30 6.1 69 0.0 0 0.0 12.0 43.1 209
15/01/2020 21:40 6.2 69 0.0 0 0.0 11.4 41.2 209
15/01/2020 21:50 6.1 69 0.0 0 0.0 11.2 40.2 207
15/01/2020 22:00 6.1 70 0.0 0 0.0 11.1 39.9 205
15/01/2020 22:10 6.1 70 0.0 0 0.0 11.5 41.5 205
15/01/2020 22:20 6.1 70 0.0 0 0.0 11.2 40.4 203
15/01/2020 22:30 6.1 70 0.0 0 0.0 11.0 39.6 202
15/01/2020 22:40 6.1 70 0.0 0 0.0 11.3 40.7 203
15/01/2020 22:50 6.1 71 0.0 0 0.0 11.1 40.0 203
15/01/2020 23:00 6.0 71 0.0 0 0.0 11.8 42.6 206
15/01/2020 23:10 6.1 71 0.0 0 0.0 11.8 42.6 209
15/01/2020 23:20 6.2 70 0.0 0 0.0 11.8 42.6 204
15/01/2020 23:30 6.1 70 0.0 0 0.0 11.9 43.0 203
15/01/2020 23:40 6.2 69 0.0 0 0.0 12.1 43.6 202
15/01/2020 23:50 6.3 69 0.0 0 0.0 11.7 42.1 201
Anterior Página 1 de 1 Siguiente
Los datos de precipitación registrados en estaciones que están en cumbres son inferiores a lo real, como consecuencia del efecto del viento y de la nieve.


NOTA: Tipo de datos según el color:
   - Valores diarios o 10 minutos correctos
   - Valores diarios calculados a partir de un número de datos 10 minutos menor que 144 y mayor que 120, o de un número de datos semihorarios menor que 48 y mayor que 40 (caso de las estaciones de INTIA y del Ministerio)
   - Valores diez minutos estimados


Contacto        Enlaces        Aviso legal